Time;durP1;ratioP1;P1;durP2;ratioP2;P2;SDS_P1;SDS_P2;PMS_P1;PMS_P2;Temp;Humidity;BMP_temperature;BMP_pressure;BME280_temperature;BME280_humidity;BME280_pressure;Samples;Min_cycle;Max_cycle;Signal;HPM_P1;HPM_P2
2023/06/20 00:01:32;;;;;;;14.32;11.98;;;20.80;99.90;;;;;;5040749;28;20402;-70
2023/06/20 00:04:21;;;;;;;13.88;11.60;;;20.70;99.90;;;;;;5043141;28;20330;-71
2023/06/20 00:07:12;;;;;;;13.60;11.95;;;20.70;99.90;;;;;;5051072;28;20231;-72
2023/06/20 00:10:01;;;;;;;13.90;11.57;;;20.70;99.90;;;;;;5047374;28;20386;-71
2023/06/20 00:12:51;;;;;;;13.32;12.02;;;20.60;99.90;;;;;;5049813;28;20366;-69
2023/06/20 00:15:41;;;;;;;15.45;12.02;;;20.60;99.90;;;;;;5055181;28;20256;-69
2023/06/20 00:18:30;;;;;;;13.43;11.75;;;20.60;99.90;;;;;;5056498;28;20213;-69
2023/06/20 00:21:19;;;;;;;15.35;13.02;;;20.60;99.90;;;;;;5065088;28;20243;-70
2023/06/20 00:24:10;;;;;;;13.32;11.75;;;20.60;99.90;;;;;;5049040;28;20224;-70
2023/06/20 00:26:59;;;;;;;14.07;11.77;;;20.50;99.90;;;;;;5052380;28;20305;-70
2023/06/20 00:29:48;;;;;;;16.40;11.98;;;20.60;99.90;;;;;;5053222;28;20369;-70
2023/06/20 00:32:38;;;;;;;16.42;12.02;;;20.60;99.90;;;;;;5056287;28;20547;-73
2023/06/20 00:35:27;;;;;;;18.65;12.00;;;20.60;99.90;;;;;;5060412;28;20223;-73
2023/06/20 00:38:16;;;;;;;14.80;11.98;;;20.60;99.90;;;;;;5049353;28;20220;-74
2023/06/20 00:41:06;;;;;;;13.32;11.63;;;20.60;99.90;;;;;;5047312;28;20529;-73
2023/06/20 00:43:55;;;;;;;16.13;12.13;;;20.60;99.90;;;;;;5033711;28;20246;-73
2023/06/20 00:46:44;;;;;;;14.05;12.55;;;20.60;99.90;;;;;;5043015;28;20224;-74
2023/06/20 00:49:34;;;;;;;13.05;11.73;;;20.50;99.90;;;;;;5038130;28;20217;-72
2023/06/20 00:52:23;;;;;;;15.18;12.60;;;20.50;99.90;;;;;;5036969;28;20800;-73
2023/06/20 00:55:13;;;;;;;14.63;12.15;;;20.50;99.90;;;;;;5042925;28;20511;-73
2023/06/20 00:58:06;;;;;;;17.00;12.68;;;20.40;99.90;;;;;;5028848;28;20221;-73
2023/06/20 01:00:55;;;;;;;15.73;12.85;;;20.40;99.90;;;;;;5038288;28;20747;-73
2023/06/20 01:03:46;;;;;;;15.35;12.60;;;20.40;99.90;;;;;;5044181;28;20359;-74
2023/06/20 01:06:44;;;;;;;14.77;12.52;;;20.40;99.90;;;;;;5036347;28;20302;-73
2023/06/20 01:09:44;;;;;;;16.65;12.93;;;20.40;99.90;;;;;;5041538;28;20298;-72
2023/06/20 01:12:39;;;;;;;15.45;13.85;;;20.40;99.90;;;;;;5055173;28;20221;-74
2023/06/20 01:15:39;;;;;;;15.13;13.05;;;20.40;99.90;;;;;;5045501;28;20311;-73
2023/06/20 01:18:43;;;;;;;16.38;13.05;;;20.40;99.90;;;;;;5043210;28;20220;-73
2023/06/20 01:21:38;;;;;;;16.52;13.32;;;20.40;99.90;;;;;;5029351;28;20221;-74
2023/06/20 01:24:36;;;;;;;14.55;13.05;;;20.20;99.90;;;;;;5015669;28;20708;-74
2023/06/20 01:27:33;;;;;;;14.13;12.63;;;20.20;99.90;;;;;;5036769;28;20217;-74
2023/06/20 01:30:25;;;;;;;14.40;12.77;;;20.30;99.90;;;;;;5056343;28;20835;-74
2023/06/20 01:33:16;;;;;;;14.98;13.45;;;20.20;99.90;;;;;;5047814;28;20220;-74
2023/06/20 01:36:07;;;;;;;14.60;13.10;;;20.20;99.90;;;;;;5049176;28;20228;-73
2023/06/20 01:39:02;;;;;;;13.60;12.20;;;20.20;99.90;;;;;;5048457;28;20216;-74
2023/06/20 01:41:56;;;;;;;15.02;13.45;;;20.20;99.90;;;;;;5038190;28;20225;-74
2023/06/20 01:44:48;;;;;;;16.73;13.43;;;20.20;99.90;;;;;;5058459;28;20225;-73
2023/06/20 01:47:39;;;;;;;17.92;12.63;;;20.20;99.90;;;;;;5063859;28;20220;-73
2023/06/20 01:50:30;;;;;;;14.48;13.07;;;20.10;99.90;;;;;;5040851;28;20228;-73
2023/06/20 01:53:20;;;;;;;17.15;13.85;;;20.10;99.90;;;;;;5040190;28;20216;-73
2023/06/20 01:56:10;;;;;;;14.60;13.00;;;20.10;99.90;;;;;;5048196;28;20236;-73
2023/06/20 01:59:02;;;;;;;14.57;12.90;;;20.00;99.90;;;;;;5051484;28;20639;-73
2023/06/20 02:01:56;;;;;;;16.73;13.60;;;20.00;99.90;;;;;;5049340;28;20578;-73
2023/06/20 02:04:46;;;;;;;16.73;13.38;;;19.90;99.90;;;;;;5038043;28;20229;-74
2023/06/20 02:07:38;;;;;;;14.40;13.00;;;19.90;99.90;;;;;;5038001;28;20317;-72
2023/06/20 02:10:28;;;;;;;15.20;13.30;;;19.90;99.90;;;;;;5038169;28;20304;-74
2023/06/20 02:13:17;;;;;;;14.63;13.13;;;19.90;99.90;;;;;;5009542;28;20264;-70
2023/06/20 02:16:09;;;;;;;16.98;13.43;;;19.80;99.90;;;;;;5039698;28;20236;-72
2023/06/20 02:18:58;;;;;;;14.70;13.10;;;19.80;99.90;;;;;;5035889;28;20223;-70
2023/06/20 02:21:48;;;;;;;17.75;14.20;;;19.70;99.90;;;;;;5048978;28;20217;-71
2023/06/20 02:24:38;;;;;;;16.55;13.15;;;19.80;99.90;;;;;;5031784;28;20232;-72
2023/06/20 02:27:27;;;;;;;14.93;13.45;;;19.70;99.90;;;;;;5044000;28;20319;-71
2023/06/20 02:30:19;;;;;;;16.83;13.68;;;19.70;99.90;;;;;;5031843;28;20228;-72
2023/06/20 02:33:13;;;;;;;16.95;15.10;;;19.60;99.90;;;;;;5037518;28;20231;-72
2023/06/20 02:36:04;;;;;;;16.95;13.77;;;19.70;99.90;;;;;;5044044;28;20305;-72
2023/06/20 02:38:56;;;;;;;15.75;13.65;;;19.70;99.90;;;;;;5040853;28;20220;-70
2023/06/20 02:41:45;;;;;;;16.08;14.20;;;19.70;99.90;;;;;;5047525;28;20387;-71
2023/06/20 02:44:35;;;;;;;15.20;13.63;;;19.70;99.90;;;;;;5028087;28;20366;-72
2023/06/20 02:47:33;;;;;;;14.70;13.18;;;19.70;99.90;;;;;;5035504;28;20228;-71
2023/06/20 02:50:30;;;;;;;16.20;14.60;;;19.60;99.90;;;;;;5041276;28;20335;-71
2023/06/20 02:53:27;;;;;;;16.20;14.30;;;19.60;99.90;;;;;;5053428;28;20216;-71
2023/06/20 02:56:17;;;;;;;15.77;13.93;;;19.70;99.90;;;;;;5047675;28;20947;-72
2023/06/20 02:59:11;;;;;;;16.23;14.43;;;19.70;99.90;;;;;;5041672;28;20402;-71
2023/06/20 03:02:06;;;;;;;18.65;14.82;;;19.70;99.90;;;;;;5047862;28;20219;-71
2023/06/20 03:04:59;;;;;;;16.27;14.68;;;19.70;99.90;;;;;;5046933;28;20235;-72
2023/06/20 03:07:52;;;;;;;18.75;14.82;;;19.80;99.90;;;;;;5045117;28;20313;-71
2023/06/20 03:10:42;;;;;;;16.17;14.48;;;19.80;99.90;;;;;;5058963;28;20239;-71
2023/06/20 03:13:31;;;;;;;17.55;15.32;;;19.80;99.90;;;;;;5056001;28;20216;-72
2023/06/20 03:16:21;;;;;;;16.95;15.15;;;19.80;99.90;;;;;;5041293;28;20220;-71
2023/06/20 03:19:11;;;;;;;16.98;15.23;;;19.90;99.90;;;;;;5044201;28;20231;-71
2023/06/20 03:22:03;;;;;;;15.82;14.13;;;19.90;99.90;;;;;;5037792;28;20325;-71
2023/06/20 03:24:54;;;;;;;17.83;15.88;;;19.80;99.90;;;;;;5028247;28;20709;-71
2023/06/20 03:27:42;;;;;;;17.55;15.65;;;19.80;99.90;;;;;;5053466;28;20672;-72
2023/06/20 03:30:31;;;;;;;18.23;16.27;;;19.90;99.90;;;;;;5045014;28;20224;-71
2023/06/20 03:33:21;;;;;;;17.50;15.73;;;19.90;99.90;;;;;;5038710;28;20225;-72
2023/06/20 03:36:10;;;;;;;17.75;15.95;;;20.00;99.90;;;;;;5028771;28;20221;-71
2023/06/20 03:39:00;;;;;;;17.95;15.70;;;20.10;99.90;;;;;;5045481;28;20350;-71
2023/06/20 03:41:54;;;;;;;17.35;15.52;;;20.10;99.90;;;;;;5037290;28;20239;-71
2023/06/20 03:44:43;;;;;;;17.52;15.82;;;20.20;99.90;;;;;;5040209;28;20957;-70
2023/06/20 03:47:32;;;;;;;17.77;15.98;;;20.30;99.90;;;;;;5039475;28;20235;-72
2023/06/20 03:50:21;;;;;;;17.58;15.70;;;20.40;99.90;;;;;;5027813;28;20225;-71
2023/06/20 03:53:11;;;;;;;17.23;15.20;;;20.40;99.90;;;;;;5036752;28;20232;-71
2023/06/20 03:56:02;;;;;;;18.42;16.42;;;20.40;99.90;;;;;;5026781;28;20252;-71
2023/06/20 03:58:55;;;;;;;18.90;16.92;;;20.50;99.90;;;;;;5043679;28;20244;-70
2023/06/20 04:01:44;;;;;;;17.75;15.85;;;20.60;99.90;;;;;;5045001;28;20221;-70
2023/06/20 04:04:33;;;;;;;17.77;16.08;;;20.70;99.90;;;;;;5038105;28;20639;-70
2023/06/20 04:07:22;;;;;;;19.17;17.30;;;20.80;99.90;;;;;;5031429;28;20798;-70
2023/06/20 04:10:12;;;;;;;18.08;16.27;;;20.80;99.90;;;;;;5034615;28;20221;-71
2023/06/20 04:13:01;;;;;;;17.77;15.98;;;20.90;99.90;;;;;;5032639;28;20294;-70
2023/06/20 04:15:54;;;;;;;18.05;16.10;;;20.90;99.90;;;;;;5040011;28;20220;-70
2023/06/20 04:18:43;;;;;;;18.90;16.20;;;20.90;99.90;;;;;;5020280;28;20217;-72
2023/06/20 04:21:32;;;;;;;16.95;15.15;;;21.00;99.90;;;;;;5047136;28;20235;-71
2023/06/20 04:24:21;;;;;;;16.38;14.82;;;21.20;99.90;;;;;;5032717;28;20355;-71
2023/06/20 04:27:11;;;;;;;17.45;15.50;;;21.30;99.90;;;;;;5046152;28;20732;-70
2023/06/20 04:30:00;;;;;;;16.55;14.90;;;21.30;99.90;;;;;;5034394;28;21039;-70
2023/06/20 04:32:53;;;;;;;17.63;15.73;;;21.40;99.90;;;;;;5030137;28;20584;-70
2023/06/20 04:35:42;;;;;;;15.70;14.10;;;21.50;99.90;;;;;;5058362;28;20307;-70
2023/06/20 04:38:34;;;;;;;20.17;15.52;;;21.70;99.90;;;;;;5043302;28;20313;-71
2023/06/20 04:41:23;;;;;;;17.40;15.50;;;21.80;99.90;;;;;;5037008;28;20251;-72
2023/06/20 04:44:13;;;;;;;17.58;14.75;;;21.90;99.90;;;;;;5049480;28;20228;-72
2023/06/20 04:47:03;;;;;;;17.08;14.65;;;21.90;99.90;;;;;;5043494;28;20220;-72
2023/06/20 04:50:03;;;;;;;16.25;14.75;;;22.10;99.90;;;;;;5051275;28;20309;-71
2023/06/20 04:52:53;;;;;;;16.25;14.55;;;22.10;99.90;;;;;;5057416;28;20228;-72
2023/06/20 04:55:42;;;;;;;15.32;13.75;;;22.20;99.90;;;;;;5053683;28;20603;-71
2023/06/20 04:58:31;;;;;;;17.20;13.48;;;22.40;99.90;;;;;;5062916;28;20220;-71
2023/06/20 05:01:20;;;;;;;20.90;13.43;;;22.50;99.90;;;;;;5055529;28;21031;-72
2023/06/20 05:04:09;;;;;;;14.85;13.27;;;22.70;99.90;;;;;;5053635;28;20232;-72
2023/06/20 05:07:01;;;;;;;13.90;12.32;;;22.80;99.90;;;;;;5041081;28;20273;-70
2023/06/20 05:09:52;;;;;;;13.82;12.45;;;22.90;99.90;;;;;;5046162;28;20216;-72
2023/06/20 05:12:40;;;;;;;13.40;12.00;;;23.20;99.90;;;;;;5057784;28;20263;-71
2023/06/20 05:15:29;;;;;;;14.05;12.68;;;23.60;99.90;;;;;;5043096;28;20228;-72
2023/06/20 05:18:21;;;;;;;13.80;12.40;;;23.60;99.90;;;;;;5051298;28;20876;-71
2023/06/20 05:21:09;;;;;;;14.38;12.88;;;23.60;99.90;;;;;;5056895;28;20236;-71
2023/06/20 05:24:00;;;;;;;14.00;12.48;;;23.60;99.90;;;;;;5040952;28;20247;-71
2023/06/20 05:26:49;;;;;;;14.95;12.60;;;23.70;99.90;;;;;;5041829;28;20336;-72
2023/06/20 05:29:40;;;;;;;15.88;13.07;;;23.60;99.90;;;;;;5054293;28;20374;-70
2023/06/20 05:32:29;;;;;;;13.50;11.68;;;23.70;99.90;;;;;;5049833;28;20250;-71
2023/06/20 05:35:19;;;;;;;13.13;11.70;;;23.60;99.90;;;;;;5043882;28;20227;-70
2023/06/20 05:38:08;;;;;;;13.65;12.25;;;23.60;99.90;;;;;;5031156;28;20281;-70
2023/06/20 05:40:59;;;;;;;13.55;12.15;;;23.60;99.90;;;;;;5030624;28;20342;-72
2023/06/20 05:43:47;;;;;;;12.70;11.30;;;23.70;99.90;;;;;;5053716;28;21125;-72
2023/06/20 05:46:37;;;;;;;15.82;12.60;;;23.70;99.90;;;;;;5055454;28;20360;-73
2023/06/20 05:49:27;;;;;;;13.30;11.25;;;23.80;99.90;;;;;;5061624;28;20279;-71
2023/06/20 05:52:15;;;;;;;14.13;12.10;;;24.00;99.90;;;;;;5047905;28;20209;-72
2023/06/20 05:55:05;;;;;;;12.85;11.50;;;23.90;99.90;;;;;;5054072;28;20281;-72
2023/06/20 05:57:55;;;;;;;13.02;11.73;;;24.10;99.90;;;;;;5041329;28;20223;-71
2023/06/20 06:00:45;;;;;;;13.82;12.35;;;24.20;99.90;;;;;;5059119;28;20227;-72
2023/06/20 06:03:34;;;;;;;13.43;12.02;;;24.20;99.90;;;;;;5059638;28;20227;-71
2023/06/20 06:06:24;;;;;;;12.55;11.40;;;24.20;99.90;;;;;;5049993;28;20224;-72
2023/06/20 06:09:12;;;;;;;15.20;12.40;;;24.10;99.90;;;;;;5053606;28;20572;-72
2023/06/20 06:12:01;;;;;;;13.82;12.07;;;24.20;99.90;;;;;;5053416;28;20255;-72
2023/06/20 06:14:54;;;;;;;14.77;11.15;;;24.20;99.90;;;;;;5043189;28;20216;-72
2023/06/20 06:17:44;;;;;;;12.82;11.30;;;24.30;99.90;;;;;;5056773;28;20247;-71
2023/06/20 06:20:34;;;;;;;17.90;12.73;;;24.50;99.90;;;;;;5056645;28;20289;-76
2023/06/20 06:23:26;;;;;;;15.95;12.50;;;24.50;99.90;;;;;;5055097;28;20216;-71
2023/06/20 06:26:15;;;;;;;18.70;12.98;;;24.70;99.90;;;;;;5051435;28;20230;-70
2023/06/20 06:29:05;;;;;;;18.95;14.48;;;24.70;99.90;;;;;;5052782;28;20706;-71
2023/06/20 06:31:56;;;;;;;18.20;13.82;;;24.70;99.90;;;;;;5057771;28;20232;-71
2023/06/20 06:34:45;;;;;;;14.85;13.35;;;25.00;99.90;;;;;;5037635;28;20574;-72
2023/06/20 06:37:35;;;;;;;16.58;13.23;;;25.30;99.90;;;;;;5024921;28;20696;-70
2023/06/20 06:40:24;;;;;;;16.77;13.50;;;25.50;99.90;;;;;;5035964;28;20221;-71
2023/06/20 06:43:13;;;;;;;18.33;13.15;;;25.80;99.90;;;;;;5039156;28;20243;-71
2023/06/20 06:46:02;;;;;;;19.10;12.32;;;26.00;99.90;;;;;;5032624;28;20697;-70
2023/06/20 06:48:52;;;;;;;21.75;13.02;;;26.40;99.90;;;;;;5035438;28;20279;-72
2023/06/20 06:51:41;;;;;;;14.88;10.98;;;26.50;99.90;;;;;;5032630;28;20708;-71
2023/06/20 06:54:30;;;;;;;16.42;11.68;;;26.00;99.90;;;;;;5026328;28;20259;-70
2023/06/20 06:57:18;;;;;;;17.58;11.05;;;26.20;99.90;;;;;;5030408;28;20299;-70
2023/06/20 07:00:11;;;;;;;15.98;11.00;;;26.20;99.90;;;;;;5033011;28;20220;-72
2023/06/20 07:03:00;;;;;;;15.73;11.00;;;26.10;99.90;;;;;;5037999;28;20592;-72
2023/06/20 07:05:52;;;;;;;16.98;11.10;;;26.10;99.90;;;;;;5040840;28;20225;-73
2023/06/20 07:08:40;;;;;;;16.40;11.10;;;26.20;99.90;;;;;;5040580;28;20222;-72
2023/06/20 07:11:29;;;;;;;13.73;10.50;;;26.60;99.90;;;;;;5032975;28;20228;-72
2023/06/20 07:14:18;;;;;;;13.55;10.80;;;27.00;99.90;;;;;;5031080;28;20221;-73
2023/06/20 07:17:07;;;;;;;10.70;9.63;;;27.10;99.90;;;;;;5043017;28;20220;-73
2023/06/20 07:19:56;;;;;;;12.10;9.82;;;27.00;99.90;;;;;;5029214;28;20218;-72
2023/06/20 07:22:46;;;;;;;12.48;9.68;;;27.00;99.90;;;;;;5029651;28;20315;-71
2023/06/20 07:25:35;;;;;;;12.80;9.38;;;27.60;99.90;;;;;;5044043;28;20632;-72
2023/06/20 07:28:25;;;;;;;10.00;8.48;;;28.00;99.90;;;;;;5027940;28;20913;-73
2023/06/20 07:31:17;;;;;;;15.13;9.32;;;28.40;99.90;;;;;;5034735;28;20231;-73
2023/06/20 07:34:06;;;;;;;12.98;9.48;;;28.60;99.50;;;;;;5044518;28;20845;-73
2023/06/20 07:36:55;;;;;;;15.80;9.10;;;28.80;99.10;;;;;;5057861;28;20224;-72
2023/06/20 07:39:46;;;;;;;9.93;8.23;;;29.10;99.10;;;;;;5041271;28;20221;-71
2023/06/20 07:42:36;;;;;;;9.48;7.72;;;;;;;;;;5039439;28;20228;-71
2023/06/20 07:45:25;;;;;;;8.40;7.57;;;29.70;94.60;;;;;;5038757;28;20345;-72
2023/06/20 07:48:14;;;;;;;10.25;7.80;;;29.80;94.40;;;;;;5044029;28;20223;-73
2023/06/20 07:51:02;;;;;;;9.10;8.20;;;30.10;94.00;;;;;;5043773;28;20660;-71
2023/06/20 07:53:52;;;;;;;8.70;7.75;;;30.40;94.20;;;;;;5033506;28;20311;-73
2023/06/20 07:56:42;;;;;;;8.63;7.80;;;30.50;93.60;;;;;;5042877;28;20333;-72
2023/06/20 07:59:32;;;;;;;8.52;7.60;;;30.60;92.00;;;;;;5036569;28;20238;-72
2023/06/20 08:02:21;;;;;;;8.70;7.90;;;30.80;91.70;;;;;;5056909;28;20230;-72
2023/06/20 08:05:11;;;;;;;8.27;7.47;;;31.00;90.70;;;;;;5036958;28;20697;-71
2023/06/20 08:08:00;;;;;;;8.77;7.88;;;31.20;90.70;;;;;;5059526;28;20702;-72
2023/06/20 08:10:49;;;;;;;8.75;7.95;;;31.50;91.20;;;;;;5051741;28;20223;-72
2023/06/20 08:13:40;;;;;;;9.18;8.27;;;31.60;90.00;;;;;;5058129;28;20292;-72
2023/06/20 08:16:28;;;;;;;8.88;7.85;;;31.80;90.00;;;;;;5042512;28;20223;-72
2023/06/20 08:19:17;;;;;;;8.45;7.65;;;31.90;91.60;;;;;;5034517;28;20231;-72
2023/06/20 08:22:06;;;;;;;8.88;7.45;;;32.20;88.30;;;;;;5050172;28;20302;-71
2023/06/20 08:24:55;;;;;;;8.38;7.43;;;31.60;85.20;;;;;;5054484;28;20235;-73
2023/06/20 08:27:44;;;;;;;7.95;7.25;;;31.80;88.30;;;;;;5059025;28;20220;-72
2023/06/20 08:30:37;;;;;;;8.07;7.38;;;32.40;87.90;;;;;;5043320;28;20216;-72
2023/06/20 08:33:26;;;;;;;8.48;7.53;;;32.40;85.50;;;;;;5061774;28;20219;-71
2023/06/20 08:36:15;;;;;;;11.88;7.75;;;33.00;81.20;;;;;;5059591;28;20668;-72
2023/06/20 08:39:04;;;;;;;7.82;7.03;;;32.60;81.00;;;;;;5047809;28;20229;-71
2023/06/20 08:41:53;;;;;;;10.15;7.95;;;33.20;86.80;;;;;;5059887;28;20318;-71
2023/06/20 08:44:42;;;;;;;8.20;7.50;;;33.40;84.80;;;;;;5051140;28;20216;-73
2023/06/20 08:47:46;;;;;;;8.60;7.78;;;33.60;85.80;;;;;;5068222;28;20227;-72
2023/06/20 08:50:37;;;;;;;10.90;7.78;;;33.80;79.00;;;;;;5038384;28;20552;-73
2023/06/20 08:53:26;;;;;;;9.55;8.07;;;33.40;80.30;;;;;;5048398;28;20810;-72
2023/06/20 08:56:17;;;;;;;8.63;7.78;;;32.60;78.50;;;;;;5040281;28;20309;-73
2023/06/20 08:59:06;;;;;;;8.88;8.07;;;31.50;81.00;;;;;;5063415;28;20223;-76
2023/06/20 09:01:55;;;;;;;8.23;7.53;;;31.20;81.90;;;;;;5036064;28;20288;-75
2023/06/20 09:04:45;;;;;;;9.18;7.80;;;31.70;79.50;;;;;;5044229;28;20276;-75
2023/06/20 09:07:38;;;;;;;8.27;7.47;;;31.30;80.60;;;;;;5063421;28;20733;-76
2023/06/20 09:10:27;;;;;;;9.05;8.18;;;31.80;84.00;;;;;;5046969;28;20215;-76
2023/06/20 09:13:16;;;;;;;8.45;7.47;;;32.60;80.40;;;;;;5030611;28;20223;-75
2023/06/20 09:16:07;;;;;;;8.77;7.80;;;33.10;87.80;;;;;;5043823;28;20240;-76
2023/06/20 09:18:59;;;;;;;8.50;7.70;;;32.30;80.00;;;;;;5034350;28;20240;-76
2023/06/20 09:21:50;;;;;;;8.32;7.32;;;31.70;79.50;;;;;;5038358;28;20212;-77
2023/06/20 09:25:05;;;;;;;8.32;7.55;;;32.00;83.40;;;;;;5057704;28;20211;-77
2023/06/20 09:27:56;;;;;;;7.75;7.03;;;32.30;80.60;;;;;;5061470;28;20946;-77
2023/06/20 09:30:48;;;;;;;9.98;7.43;;;31.90;83.80;;;;;;5053977;28;20735;-76
2023/06/20 09:33:38;;;;;;;8.43;7.50;;;31.20;82.20;;;;;;5055941;28;20235;-75
2023/06/20 09:36:27;;;;;;;8.82;7.53;;;30.90;81.80;;;;;;5042896;28;20225;-75
2023/06/20 09:39:21;;;;;;;10.32;8.23;;;30.60;81.00;;;;;;5054024;28;20269;-76
2023/06/20 09:42:13;;;;;;;9.65;8.10;;;31.50;85.00;;;;;;5053033;28;20251;-76
2023/06/20 09:45:02;;;;;;;8.50;7.80;;;33.10;79.20;;;;;;5069533;28;20285;-76
2023/06/20 09:48:12;;;;;;;10.02;7.78;;;33.20;77.70;;;;;;5060903;28;20311;-76
2023/06/20 09:51:02;;;;;;;7.85;7.18;;;33.60;75.40;;;;;;5061770;28;20738;-76
2023/06/20 09:54:03;;;;;;;9.75;7.78;;;35.50;78.90;;;;;;5055871;28;20232;-76
2023/06/20 09:57:01;;;;;;;7.85;7.13;;;35.50;75.30;;;;;;5068808;28;20233;-77
2023/06/20 09:59:55;;;;;;;8.32;7.10;;;36.00;74.60;;;;;;5063416;28;20220;-76
2023/06/20 10:02:46;;;;;;;7.68;6.88;;;37.70;72.00;;;;;;5060577;28;20587;-75
2023/06/20 10:05:36;;;;;;;7.53;6.82;;;38.30;67.30;;;;;;5059672;28;20828;-76
2023/06/20 10:08:26;;;;;;;7.10;6.50;;;39.30;65.10;;;;;;5062988;28;20976;-76
2023/06/20 10:11:15;;;;;;;7.70;6.25;;;39.80;65.90;;;;;;5060599;28;20259;-76
2023/06/20 10:14:06;;;;;;;13.05;7.10;;;39.70;60.90;;;;;;5054691;28;20220;-76
2023/06/20 10:16:54;;;;;;;7.38;6.38;;;38.50;59.30;;;;;;5034502;28;20225;-75
2023/06/20 10:19:51;;;;;;;7.68;6.53;;;39.20;61.60;;;;;;5059462;28;20290;-76
2023/06/20 10:22:43;;;;;;;11.25;6.90;;;38.30;61.50;;;;;;5031313;28;20271;-77
2023/06/20 10:25:33;;;;;;;9.52;7.63;;;36.40;63.40;;;;;;5045817;28;20248;-76
2023/06/20 10:28:23;;;;;;;7.93;7.15;;;34.50;67.10;;;;;;5050251;28;20253;-77
2023/06/20 10:31:13;;;;;;;8.65;7.38;;;33.30;67.50;;;;;;5054639;28;20231;-77
2023/06/20 10:34:03;;;;;;;7.88;7.10;;;33.20;69.20;;;;;;5047123;28;20225;-77
2023/06/20 10:36:52;;;;;;;8.63;7.75;;;33.20;70.50;;;;;;5033347;28;20639;-73
2023/06/20 10:39:57;;;;;;;7.07;6.45;;;32.40;72.40;;;;;;5037199;28;20833;-85
2023/06/20 10:42:45;;;;;;;8.57;6.63;;;31.50;70.20;;;;;;5001501;28;20715;-71
2023/06/20 10:45:34;;;;;;;7.15;6.47;;;31.20;70.20;;;;;;5014591;28;20309;-70
2023/06/20 10:48:25;;;;;;;7.80;7.07;;;30.80;73.00;;;;;;5052625;28;20715;-72
2023/06/20 10:51:14;;;;;;;8.55;6.97;;;30.00;71.90;;;;;;5030086;28;20228;-71
2023/06/20 10:54:10;;;;;;;7.95;7.25;;;30.20;75.40;;;;;;5037592;28;20227;-71
2023/06/20 10:56:59;;;;;;;9.05;7.07;;;30.90;73.30;;;;;;5039346;28;20338;-71
2023/06/20 10:59:51;;;;;;;8.77;7.45;;;33.20;70.50;;;;;;5023161;28;20216;-71
2023/06/20 11:02:39;;;;;;;8.52;7.05;;;33.20;71.00;;;;;;5028660;28;20269;-70
2023/06/20 11:05:33;;;;;;;16.05;7.75;;;36.40;67.80;;;;;;5033350;28;20397;-70
2023/06/20 11:08:23;;;;;;;7.20;6.28;;;39.40;65.60;;;;;;5032460;28;20218;-71
2023/06/20 11:11:12;;;;;;;7.43;6.30;;;40.60;58.70;;;;;;5044998;28;20227;-71
2023/06/20 11:14:10;;;;;;;6.95;6.20;;;40.70;58.00;;;;;;5028209;28;20243;-70
2023/06/20 11:16:59;;;;;;;6.72;6.13;;;38.70;55.70;;;;;;5037423;28;20285;-72
2023/06/20 11:19:49;;;;;;;10.88;6.30;;;36.40;60.50;;;;;;5041198;28;20752;-73
2023/06/20 11:22:40;;;;;;;6.95;6.35;;;35.80;59.20;;;;;;5037155;28;20803;-73
2023/06/20 11:25:30;;;;;;;6.25;5.75;;;34.40;62.20;;;;;;5029463;28;20358;-73
2023/06/20 11:28:20;;;;;;;10.45;6.97;;;33.20;65.00;;;;;;5031132;28;20240;-72
2023/06/20 11:31:11;;;;;;;7.90;6.82;;;32.20;66.60;;;;;;5030710;28;20240;-72
2023/06/20 11:34:04;;;;;;;7.43;6.82;;;31.50;67.70;;;;;;5047779;28;20226;-73
2023/06/20 11:36:52;;;;;;;8.48;6.35;;;31.40;69.00;;;;;;5039081;28;20223;-71
2023/06/20 11:39:45;;;;;;;8.38;6.65;;;31.20;68.60;;;;;;5049512;28;20243;-72
2023/06/20 11:42:36;;;;;;;7.65;6.95;;;30.70;70.60;;;;;;5057794;28;20253;-72
2023/06/20 11:45:26;;;;;;;9.75;7.57;;;30.70;71.40;;;;;;5041113;28;20266;-72
2023/06/20 11:48:16;;;;;;;7.93;7.13;;;30.60;71.20;;;;;;5051719;28;20230;-72
2023/06/20 11:51:06;;;;;;;7.93;7.07;;;30.40;73.10;;;;;;5049019;28;20321;-72
2023/06/20 11:54:02;;;;;;;8.25;7.35;;;30.20;72.60;;;;;;5037641;28;20224;-72
2023/06/20 11:56:53;;;;;;;11.00;7.90;;;30.00;73.00;;;;;;5025159;28;20247;-72
2023/06/20 11:59:42;;;;;;;8.93;7.55;;;29.80;73.70;;;;;;5040846;28;20702;-71
2023/06/20 12:02:30;;;;;;;9.15;8.18;;;29.90;73.80;;;;;;5053750;28;20215;-72
2023/06/20 12:05:31;;;;;;;8.75;7.97;;;29.90;75.10;;;;;;5057640;28;20249;-71
2023/06/20 12:08:20;;;;;;;8.35;7.57;;;30.10;73.50;;;;;;5052598;28;20216;-72
2023/06/20 12:11:10;;;;;;;7.85;7.13;;;30.00;73.30;;;;;;5049891;28;20234;-73
2023/06/20 12:14:00;;;;;;;8.20;7.50;;;31.20;73.00;;;;;;5059329;28;20695;-71
2023/06/20 12:16:50;;;;;;;8.10;7.40;;;33.30;69.60;;;;;;5036026;28;20220;-73
2023/06/20 12:19:51;;;;;;;7.85;6.95;;;32.30;67.70;;;;;;5056844;28;20231;-71
2023/06/20 12:22:40;;;;;;;8.00;7.20;;;33.80;67.00;;;;;;5057431;28;20694;-71
2023/06/20 12:25:31;;;;;;;7.85;7.05;;;32.60;68.80;;;;;;5055909;28;20276;-71
2023/06/20 12:28:21;;;;;;;7.13;6.35;;;35.50;66.00;;;;;;5044850;28;20226;-71
2023/06/20 12:31:12;;;;;;;7.28;6.57;;;33.40;65.00;;;;;;5054301;28;20224;-71
2023/06/20 12:34:01;;;;;;;8.73;6.90;;;35.90;64.80;;;;;;5040338;28;20243;-71
2023/06/20 12:36:49;;;;;;;8.20;6.88;;;33.70;66.00;;;;;;5030067;28;20258;-72
2023/06/20 12:39:40;;;;;;;6.97;6.38;;;32.90;67.70;;;;;;5036705;28;20382;-71
2023/06/20 12:42:29;;;;;;;7.07;6.50;;;32.70;66.50;;;;;;5030595;28;20806;-73
2023/06/20 12:45:18;;;;;;;8.05;6.38;;;35.60;65.50;;;;;;5034664;28;20235;-72
2023/06/20 12:48:08;;;;;;;7.45;6.85;;;35.00;65.20;;;;;;5028728;28;20227;-72
2023/06/20 12:50:57;;;;;;;7.15;6.65;;;33.30;65.70;;;;;;5027413;28;20735;-72
2023/06/20 12:53:46;;;;;;;7.10;6.50;;;32.20;68.20;;;;;;5029333;28;20220;-72
2023/06/20 12:56:35;;;;;;;9.23;7.10;;;31.40;69.00;;;;;;5034825;28;20251;-76
2023/06/20 12:59:24;;;;;;;8.13;7.28;;;30.80;70.40;;;;;;5017736;28;20225;-73
2023/06/20 13:02:13;;;;;;;8.00;7.30;;;30.70;70.20;;;;;;5029440;28;20281;-72
2023/06/20 13:05:04;;;;;;;7.82;7.07;;;30.90;69.90;;;;;;5041099;28;20225;-72
2023/06/20 13:07:52;;;;;;;7.60;7.00;;;30.60;70.50;;;;;;5022942;28;20221;-72
2023/06/20 13:10:41;;;;;;;7.75;6.95;;;30.40;71.30;;;;;;5034488;28;20225;-71
2023/06/20 13:13:30;;;;;;;8.00;7.20;;;30.30;71.10;;;;;;5033013;28;20703;-72
2023/06/20 13:16:21;;;;;;;7.82;7.13;;;29.90;71.00;;;;;;5036920;28;20225;-72
2023/06/20 13:19:10;;;;;;;8.45;7.15;;;29.90;71.60;;;;;;5043567;28;21006;-72
2023/06/20 13:22:01;;;;;;;8.27;7.43;;;29.70;72.00;;;;;;5035886;28;20228;-72
2023/06/20 13:24:52;;;;;;;8.77;7.93;;;29.60;71.90;;;;;;5037497;28;20732;-71
2023/06/20 13:27:40;;;;;;;8.48;7.63;;;29.40;72.30;;;;;;5036949;28;20243;-73
2023/06/20 13:30:29;;;;;;;8.15;7.38;;;29.20;72.00;;;;;;5029539;28;20731;-72
2023/06/20 13:33:18;;;;;;;8.73;7.82;;;29.40;72.60;;;;;;5033648;28;20353;-72
2023/06/20 13:36:08;;;;;;;8.15;7.38;;;29.30;73.70;;;;;;5043119;28;20247;-71
2023/06/20 13:39:00;;;;;;;8.45;7.03;;;29.40;74.20;;;;;;5060339;28;20231;-73
2023/06/20 13:41:49;;;;;;;8.48;7.70;;;29.30;73.90;;;;;;5045759;28;20212;-72
2023/06/20 13:44:40;;;;;;;15.05;8.05;;;29.40;73.50;;;;;;5056149;28;20215;-72
2023/06/20 13:47:31;;;;;;;8.05;7.35;;;29.50;73.90;;;;;;5049230;28;20230;-71
2023/06/20 13:50:20;;;;;;;8.35;7.65;;;29.50;71.90;;;;;;5057292;28;20745;-71
2023/06/20 13:53:09;;;;;;;8.70;7.63;;;29.40;73.10;;;;;;5055614;28;20215;-72
2023/06/20 13:55:59;;;;;;;8.35;7.55;;;29.30;72.60;;;;;;5042089;28;20219;-72
2023/06/20 13:58:49;;;;;;;7.85;7.13;;;29.30;72.60;;;;;;5060249;28;20266;-73
2023/06/20 14:01:41;;;;;;;11.45;7.65;;;29.30;73.50;;;;;;5052167;28;20706;-71
2023/06/20 14:04:30;;;;;;;7.93;7.22;;;29.30;73.80;;;;;;5033946;28;20228;-73
2023/06/20 14:07:20;;;;;;;8.05;7.25;;;29.10;73.40;;;;;;5045536;28;20586;-72
2023/06/20 14:10:09;;;;;;;9.55;7.85;;;29.20;74.70;;;;;;5056082;28;20981;-72
2023/06/20 14:12:59;;;;;;;9.38;8.15;;;29.20;73.10;;;;;;5052865;28;20297;-71
2023/06/20 14:15:49;;;;;;;10.30;8.43;;;29.20;73.10;;;;;;5034972;28;20281;-72
2023/06/20 14:18:40;;;;;;;8.50;7.65;;;29.10;74.60;;;;;;5051737;28;20227;-71
2023/06/20 14:21:29;;;;;;;8.32;7.57;;;29.10;73.50;;;;;;5036468;28;20226;-73
2023/06/20 14:24:18;;;;;;;8.05;7.35;;;28.90;74.20;;;;;;5056142;28;20303;-73
2023/06/20 14:27:07;;;;;;;12.40;7.90;;;28.90;74.10;;;;;;5051681;28;20213;-72
2023/06/20 14:29:59;;;;;;;8.88;8.02;;;28.60;74.00;;;;;;5035599;28;20228;-74
2023/06/20 14:32:49;;;;;;;12.80;8.02;;;28.80;75.10;;;;;;5057557;28;20631;-72
2023/06/20 14:35:38;;;;;;;9.77;8.35;;;28.80;75.20;;;;;;5032895;28;20291;-72